createdAt,value
2018-09-06T00:00:06.637Z,97299.00
2018-09-06T00:02:35.825Z,97304.00
2018-09-06T00:05:05.140Z,97302.00
2018-09-06T00:07:34.360Z,97296.00
2018-09-06T00:10:03.624Z,97303.00
2018-09-06T00:12:32.808Z,97303.00
2018-09-06T00:15:02.081Z,97297.00
2018-09-06T00:17:31.280Z,97306.00
2018-09-06T00:20:00.489Z,97297.00
2018-09-06T00:22:29.669Z,97301.00
2018-09-06T00:24:58.861Z,97301.00
2018-09-06T00:27:28.050Z,97303.00
2018-09-06T00:29:57.253Z,97295.00
2018-09-06T00:32:26.438Z,97300.00
2018-09-06T00:34:55.676Z,97299.00
2018-09-06T00:37:24.857Z,97294.00
2018-09-06T00:39:54.049Z,97302.00
2018-09-06T00:42:23.389Z,97295.00
2018-09-06T00:44:52.653Z,97299.00
2018-09-06T00:47:22.005Z,97293.00
2018-09-06T00:49:51.220Z,97299.00
2018-09-06T00:52:20.430Z,97299.00
2018-09-06T00:54:49.638Z,97290.00
2018-09-06T00:57:18.847Z,97290.00
2018-09-06T00:59:48.027Z,97289.00
2018-09-06T01:02:17.229Z,97287.00
2018-09-06T01:04:46.448Z,97286.00
2018-09-06T01:07:15.660Z,97284.00
2018-09-06T01:09:44.840Z,97277.00
2018-09-06T01:12:15.432Z,97272.00
2018-09-06T01:14:44.824Z,97280.00
2018-09-06T01:17:14.261Z,97277.00
2018-09-06T01:19:43.700Z,97269.00
2018-09-06T01:22:12.920Z,97263.00
2018-09-06T01:24:42.283Z,97262.00
2018-09-06T01:27:11.489Z,97255.00
2018-09-06T01:29:40.797Z,97248.00
2018-09-06T01:32:09.993Z,97256.00
2018-09-06T01:34:39.336Z,97256.00
2018-09-06T01:37:10.393Z,97265.00
2018-09-06T01:39:40.513Z,97255.00
2018-09-06T01:42:10.063Z,97256.00
2018-09-06T01:44:39.268Z,97244.00
2018-09-06T01:47:08.501Z,97253.00
2018-09-06T01:49:37.695Z,97249.00
2018-09-06T01:52:06.904Z,97253.00
2018-09-06T01:54:36.076Z,97245.00
2018-09-06T01:57:05.292Z,97244.00
2018-09-06T01:59:36.665Z,97244.00
2018-09-06T02:02:06.179Z,97244.00
2018-09-06T02:04:35.420Z,97244.00
2018-09-06T02:07:04.687Z,97242.00
2018-09-06T02:09:33.893Z,97257.00
2018-09-06T02:12:03.096Z,97240.00
2018-09-06T02:14:32.348Z,97231.00
2018-09-06T02:17:01.540Z,97226.00
2018-09-06T02:19:30.734Z,97232.00
2018-09-06T02:21:59.929Z,97228.00
2018-09-06T02:24:29.186Z,97227.00
2018-09-06T02:26:58.344Z,97220.00
2018-09-06T02:29:27.533Z,97219.00
2018-09-06T02:31:56.724Z,97217.00
2018-09-06T02:34:25.933Z,97217.00
2018-09-06T02:36:55.153Z,97217.00
2018-09-06T02:39:24.380Z,97211.00
2018-09-06T02:41:53.579Z,97223.00
2018-09-06T02:44:22.746Z,97210.00
2018-09-06T02:46:51.953Z,97210.00
2018-09-06T02:49:26.528Z,97217.00
2018-09-06T02:51:55.723Z,97217.00
2018-09-06T02:54:24.917Z,97207.00
2018-09-06T02:56:54.206Z,97206.00
2018-09-06T02:59:23.804Z,97211.00
2018-09-06T03:01:52.992Z,97204.00
2018-09-06T03:04:22.152Z,97203.00
2018-09-06T03:06:51.424Z,97193.00
2018-09-06T03:09:22.318Z,97201.00
2018-09-06T03:11:54.991Z,97201.00
2018-09-06T03:14:24.162Z,97188.00
2018-09-06T03:16:53.361Z,97188.00
2018-09-06T03:19:22.538Z,97190.00
2018-09-06T03:21:51.824Z,97184.00
2018-09-06T03:24:21.004Z,97194.00
2018-09-06T03:26:50.229Z,97183.00
2018-09-06T03:29:19.401Z,97184.00
2018-09-06T03:31:48.644Z,97191.00
2018-09-06T03:34:17.808Z,97183.00
2018-09-06T03:36:46.988Z,97181.00
2018-09-06T03:39:16.148Z,97195.00
2018-09-06T03:41:45.344Z,97193.00
2018-09-06T03:44:14.560Z,97183.00
2018-09-06T03:46:43.756Z,97181.00
2018-09-06T03:49:12.929Z,97179.00
2018-09-06T03:51:42.156Z,97186.00
2018-09-06T03:54:11.336Z,97180.00
2018-09-06T03:56:40.580Z,97183.00
2018-09-06T03:59:09.760Z,97182.00
2018-09-06T04:01:38.988Z,97184.00
2018-09-06T04:04:08.160Z,97178.00
2018-09-06T04:06:37.357Z,97179.00
2018-09-06T04:09:10.013Z,97174.00
2018-09-06T04:11:39.226Z,97167.00
2018-09-06T04:14:08.408Z,97176.00
2018-09-06T04:16:38.073Z,97179.00
2018-09-06T04:19:07.682Z,97173.00
2018-09-06T04:21:36.872Z,97182.00
2018-09-06T04:24:06.453Z,97175.00
2018-09-06T04:26:35.656Z,97174.00
2018-09-06T04:29:04.864Z,97172.00
2018-09-06T04:31:34.036Z,97176.00
2018-09-06T04:34:03.248Z,97170.00
2018-09-06T04:36:32.441Z,97167.00
2018-09-06T04:39:08.657Z,97164.00
2018-09-06T04:41:37.829Z,97166.00
2018-09-06T04:44:07.120Z,97174.00
2018-09-06T04:46:36.660Z,97165.00
2018-09-06T04:49:05.872Z,97159.00
2018-09-06T04:51:35.052Z,97160.00
2018-09-06T04:54:04.248Z,97162.00
2018-09-06T04:56:33.433Z,97156.00
2018-09-06T04:59:02.641Z,97159.00
2018-09-06T05:01:31.832Z,97157.00
2018-09-06T05:04:01.048Z,97157.00
2018-09-06T05:06:30.229Z,97169.00
2018-09-06T05:08:59.496Z,97164.00
2018-09-06T05:11:29.575Z,97161.00
2018-09-06T05:13:58.780Z,97163.00
2018-09-06T05:16:27.968Z,97169.00
2018-09-06T05:18:57.175Z,97179.00
2018-09-06T05:21:26.356Z,97173.00
2018-09-06T05:23:55.559Z,97165.00
2018-09-06T05:26:24.861Z,97168.00
2018-09-06T05:28:54.080Z,97167.00
2018-09-06T05:31:23.260Z,97171.00
2018-09-06T05:33:52.460Z,97161.00
2018-09-06T05:36:21.699Z,97162.00
2018-09-06T05:38:50.888Z,97163.00
2018-09-06T05:41:20.068Z,97165.00
2018-09-06T05:43:49.278Z,97170.00
2018-09-06T05:46:18.496Z,97154.00
2018-09-06T05:48:47.693Z,97162.00
2018-09-06T05:51:16.885Z,97152.00
2018-09-06T05:53:46.093Z,97154.00
2018-09-06T05:56:15.264Z,97151.00
2018-09-06T05:58:44.475Z,97151.00
2018-09-06T06:01:13.660Z,97154.00
2018-09-06T06:03:42.847Z,97150.00
2018-09-06T06:06:12.046Z,97157.00
2018-09-06T06:08:45.837Z,97157.00
2018-09-06T06:11:15.044Z,97144.00
2018-09-06T06:13:44.261Z,97151.00
2018-09-06T06:16:13.957Z,97147.00
2018-09-06T06:18:43.398Z,97153.00
2018-09-06T06:21:12.888Z,97146.00
2018-09-06T06:23:42.168Z,97136.00
2018-09-06T06:26:11.426Z,97140.00
2018-09-06T06:28:40.603Z,97143.00
2018-09-06T06:31:09.809Z,97140.00
2018-09-06T06:33:39.025Z,97145.00
2018-09-06T06:36:08.228Z,97148.00
2018-09-06T06:38:37.480Z,97145.00
2018-09-06T06:41:06.707Z,97149.00
2018-09-06T06:43:35.920Z,97131.00
2018-09-06T06:46:05.128Z,97136.00
2018-09-06T06:48:34.336Z,97137.00
2018-09-06T06:51:03.520Z,97130.00
2018-09-06T06:53:32.724Z,97129.00
2018-09-06T06:56:01.959Z,97136.00
2018-09-06T06:58:31.192Z,97131.00
2018-09-06T07:01:00.407Z,97126.00
2018-09-06T07:03:29.600Z,97123.00
2018-09-06T07:05:58.776Z,97122.00
2018-09-06T07:08:28.009Z,97128.00
2018-09-06T07:10:57.196Z,97141.00
2018-09-06T07:13:26.400Z,97139.00
2018-09-06T07:15:55.579Z,97125.00
2018-09-06T07:18:24.901Z,97132.00
2018-09-06T07:20:54.012Z,97141.00
2018-09-06T07:23:23.217Z,97134.00
2018-09-06T07:25:52.412Z,97131.00
2018-09-06T07:28:21.610Z,97131.00
2018-09-06T07:30:50.808Z,97124.00
2018-09-06T07:33:20.027Z,97126.00
2018-09-06T07:35:49.214Z,97124.00
2018-09-06T07:38:18.421Z,97114.00
2018-09-06T07:40:47.629Z,97118.00
2018-09-06T07:43:16.863Z,97119.00
2018-09-06T07:45:46.044Z,97118.00
2018-09-06T07:48:15.220Z,97112.00
2018-09-06T07:50:44.454Z,97111.00
2018-09-06T07:53:13.741Z,97112.00
2018-09-06T07:55:42.946Z,97120.00
2018-09-06T07:58:12.133Z,97122.00
2018-09-06T08:00:41.609Z,97129.00
2018-09-06T08:03:11.720Z,97123.00
2018-09-06T08:05:41.565Z,97122.00
2018-09-06T08:08:11.172Z,97125.00
2018-09-06T08:10:40.384Z,97116.00
2018-09-06T08:13:09.565Z,97115.00
2018-09-06T08:15:45.325Z,97111.00
2018-09-06T08:18:14.500Z,97112.00
2018-09-06T08:20:43.701Z,97108.00
2018-09-06T08:23:12.880Z,97097.00
2018-09-06T08:25:42.075Z,97110.00
2018-09-06T08:28:11.245Z,97106.00
2018-09-06T08:30:40.516Z,97103.00
2018-09-06T08:33:09.681Z,97105.00
2018-09-06T08:35:38.868Z,97102.00
2018-09-06T08:38:08.440Z,97105.00
2018-09-06T08:40:37.792Z,97104.00
2018-09-06T08:43:07.371Z,97101.00
2018-09-06T08:45:36.641Z,97093.00
2018-09-06T08:48:05.868Z,97098.00
2018-09-06T08:50:35.096Z,97106.00
2018-09-06T08:53:04.288Z,97096.00
2018-09-06T08:55:33.490Z,97095.00
2018-09-06T08:58:02.684Z,97103.00
2018-09-06T09:00:31.884Z,97094.00
2018-09-06T09:03:01.090Z,97091.00
2018-09-06T09:05:30.289Z,97087.00
2018-09-06T09:07:59.502Z,97094.00
2018-09-06T09:10:28.741Z,97087.00
2018-09-06T09:12:57.932Z,97085.00
2018-09-06T09:15:27.164Z,97088.00
2018-09-06T09:17:56.450Z,97084.00
2018-09-06T09:20:25.784Z,97085.00
2018-09-06T09:22:54.995Z,97078.00
2018-09-06T09:25:24.206Z,97081.00
2018-09-06T09:27:53.392Z,97085.00
2018-09-06T09:30:22.650Z,97080.00
2018-09-06T09:32:51.985Z,97075.00
2018-09-06T09:35:21.192Z,97072.00
2018-09-06T09:37:50.381Z,97081.00
2018-09-06T09:40:19.600Z,97074.00
2018-09-06T09:42:48.806Z,97078.00
2018-09-06T09:45:18.008Z,97076.00
2018-09-06T09:47:47.244Z,97075.00
2018-09-06T09:52:44.670Z,97068.00
2018-09-06T09:55:13.895Z,97062.00
2018-09-06T09:57:43.090Z,97066.00
2018-09-06T10:00:12.353Z,97055.00
2018-09-06T10:02:46.971Z,97055.00
2018-09-06T10:05:21.532Z,97052.00
2018-09-06T10:07:56.016Z,97054.00
2018-09-06T10:10:25.526Z,97050.00
2018-09-06T10:12:54.700Z,97042.00
2018-09-06T10:15:23.906Z,97035.00
2018-09-06T10:17:53.159Z,97030.00
2018-09-06T10:20:22.404Z,97037.00
2018-09-06T10:22:51.611Z,97032.00
2018-09-06T10:25:20.897Z,97027.00
2018-09-06T10:27:50.093Z,97025.00
2018-09-06T10:30:19.289Z,97024.00
2018-09-06T10:32:48.520Z,97026.00
2018-09-06T10:35:17.820Z,97020.00
2018-09-06T10:37:47.001Z,97022.00
2018-09-06T10:40:16.212Z,97023.00
2018-09-06T10:42:45.380Z,96973.00
2018-09-06T10:45:14.620Z,97018.00
2018-09-06T10:47:43.832Z,97022.00
2018-09-06T10:50:13.032Z,97011.00
2018-09-06T10:52:42.221Z,97012.00
2018-09-06T10:55:11.396Z,97006.00
2018-09-06T10:57:40.580Z,97003.00
2018-09-06T11:00:09.864Z,97003.00
2018-09-06T11:02:39.056Z,96997.00
2018-09-06T11:05:08.269Z,96998.00
2018-09-06T11:07:37.480Z,96998.00
2018-09-06T11:10:06.742Z,96996.00
2018-09-06T11:12:35.924Z,96998.00
2018-09-06T11:15:05.309Z,96989.00
2018-09-06T11:17:34.477Z,96992.00
2018-09-06T11:20:10.348Z,96982.00
2018-09-06T11:22:39.784Z,96991.00
2018-09-06T11:25:09.122Z,96986.00
2018-09-06T11:27:38.454Z,96993.00
2018-09-06T11:30:07.707Z,96984.00
2018-09-06T11:32:36.923Z,96981.00
2018-09-06T11:35:06.224Z,96981.00
2018-09-06T11:37:35.624Z,96984.00
2018-09-06T11:40:04.876Z,96978.00
2018-09-06T11:42:34.029Z,96969.00
2018-09-06T11:45:03.221Z,96973.00
2018-09-06T11:47:32.424Z,96980.00
2018-09-06T11:50:01.639Z,96970.00
2018-09-06T11:52:30.885Z,96976.00
2018-09-06T11:55:00.189Z,96971.00
2018-09-06T11:57:29.428Z,96973.00
2018-09-06T11:59:58.589Z,96962.00
2018-09-06T12:02:27.797Z,96954.00
2018-09-06T12:04:57.021Z,96950.00
2018-09-06T12:07:26.220Z,96953.00
2018-09-06T12:09:55.415Z,96951.00
2018-09-06T12:12:24.655Z,96940.00
2018-09-06T12:14:53.835Z,96950.00
2018-09-06T12:17:23.032Z,96953.00
2018-09-06T12:19:52.270Z,96953.00
2018-09-06T12:22:21.508Z,96943.00
2018-09-06T12:24:50.689Z,96939.00
2018-09-06T12:27:19.932Z,96938.00
2018-09-06T12:29:49.137Z,96939.00
2018-09-06T12:32:18.408Z,96935.00
2018-09-06T12:34:47.560Z,96943.00
2018-09-06T12:37:16.768Z,96932.00
2018-09-06T12:39:46.701Z,96928.00
2018-09-06T12:42:15.896Z,96933.00
2018-09-06T12:44:45.093Z,96928.00
2018-09-06T12:47:14.297Z,96929.00
2018-09-06T12:49:43.546Z,96929.00
2018-09-06T12:52:12.684Z,96923.00
2018-09-06T12:54:41.944Z,96919.00
2018-09-06T12:57:11.165Z,96918.00
2018-09-06T12:59:40.368Z,96913.00
2018-09-06T13:02:09.576Z,96905.00
2018-09-06T13:04:38.886Z,96911.00
2018-09-06T13:07:08.156Z,96909.00
2018-09-06T13:09:37.455Z,96911.00
2018-09-06T13:12:06.840Z,96907.00
2018-09-06T13:14:36.053Z,96911.00
2018-09-06T13:17:05.289Z,96906.00
2018-09-06T13:19:34.909Z,96904.00
2018-09-06T13:22:04.106Z,96900.00
2018-09-06T13:24:33.299Z,96895.00
2018-09-06T13:27:02.534Z,96881.00
2018-09-06T13:29:31.728Z,96897.00
2018-09-06T13:32:00.966Z,96890.00
2018-09-06T13:34:30.152Z,96887.00
2018-09-06T13:36:59.362Z,96890.00
2018-09-06T13:39:28.548Z,96893.00
2018-09-06T13:41:57.764Z,96889.00
2018-09-06T13:44:26.949Z,96883.00
2018-09-06T13:46:56.157Z,96878.00
2018-09-06T13:49:25.342Z,96882.00
2018-09-06T13:51:54.556Z,96876.00
2018-09-06T13:54:23.724Z,96875.00
2018-09-06T13:56:53.280Z,96868.00
2018-09-06T13:59:22.456Z,96874.00
2018-09-06T14:01:51.656Z,96869.00
2018-09-06T14:04:22.440Z,96871.00
2018-09-06T14:06:51.891Z,96867.00
2018-09-06T14:09:21.081Z,96866.00
2018-09-06T14:11:50.284Z,96858.00
2018-09-06T14:14:19.452Z,96856.00
2018-09-06T14:16:48.707Z,96848.00
2018-09-06T14:19:17.913Z,96841.00
2018-09-06T14:21:47.134Z,96848.00
2018-09-06T14:24:16.376Z,96844.00
2018-09-06T14:26:45.524Z,96841.00
2018-09-06T14:29:14.697Z,96835.00
2018-09-06T14:31:43.896Z,96836.00
2018-09-06T14:34:13.062Z,96836.00
2018-09-06T14:36:42.260Z,96836.00
2018-09-06T14:39:11.466Z,96835.00
2018-09-06T14:41:40.662Z,96837.00
2018-09-06T14:44:09.927Z,96827.00
2018-09-06T14:46:39.068Z,96826.00
2018-09-06T14:49:08.284Z,96830.00
2018-09-06T14:51:37.521Z,96822.00
2018-09-06T14:54:07.035Z,96815.00
2018-09-06T14:56:36.249Z,96817.00
2018-09-06T14:59:05.733Z,96819.00
2018-09-06T15:01:35.097Z,96814.00
2018-09-06T15:04:04.295Z,96817.00
2018-09-06T15:06:33.501Z,96812.00
2018-09-06T15:09:02.768Z,96820.00
2018-09-06T15:11:31.956Z,96816.00
2018-09-06T15:14:01.272Z,96809.00
2018-09-06T15:16:30.366Z,96811.00
2018-09-06T15:18:59.565Z,96806.00
2018-09-06T15:21:28.778Z,96808.00
2018-09-06T15:23:58.253Z,96807.00
2018-09-06T15:26:27.581Z,96804.00
2018-09-06T15:28:56.834Z,96796.00
2018-09-06T15:31:26.181Z,96798.00
2018-09-06T15:33:55.368Z,96794.00
2018-09-06T15:36:24.572Z,96785.00
2018-09-06T15:38:53.806Z,96795.00
2018-09-06T15:41:23.060Z,96789.00
2018-09-06T15:43:52.271Z,96792.00
2018-09-06T15:46:21.505Z,96782.00
2018-09-06T15:48:51.014Z,96781.00
2018-09-06T15:51:20.205Z,96779.00
2018-09-06T15:53:49.427Z,96787.00
2018-09-06T15:56:18.636Z,96778.00
2018-09-06T15:58:47.845Z,96778.00
2018-09-06T16:01:23.692Z,96772.00
2018-09-06T16:03:53.042Z,96772.00
2018-09-06T16:06:22.221Z,96773.00
2018-09-06T16:08:51.440Z,96778.00
2018-09-06T16:11:20.970Z,96774.00
2018-09-06T16:13:50.140Z,96772.00
2018-09-06T16:16:19.334Z,96774.00
2018-09-06T16:18:48.972Z,96775.00
2018-09-06T16:21:18.172Z,96772.00
2018-09-06T16:23:47.381Z,96776.00
2018-09-06T16:26:16.619Z,96766.00
2018-09-06T16:28:45.828Z,96775.00
2018-09-06T16:31:15.044Z,96768.00
2018-09-06T16:33:44.300Z,96771.00
2018-09-06T16:36:13.478Z,96757.00
2018-09-06T16:38:42.673Z,96779.00
2018-09-06T16:41:11.904Z,96770.00
2018-09-06T16:43:41.276Z,96769.00
2018-09-06T16:46:10.473Z,96764.00
2018-09-06T16:48:39.812Z,96760.00
2018-09-06T16:51:09.067Z,96762.00
2018-09-06T16:53:38.340Z,96762.00
2018-09-06T16:56:07.576Z,96763.00
2018-09-06T16:58:36.784Z,96761.00
2018-09-06T17:01:06.082Z,96765.00
2018-09-06T17:03:35.312Z,96754.00
2018-09-06T17:06:04.479Z,96758.00
2018-09-06T17:08:33.708Z,96753.00
2018-09-06T17:11:03.520Z,96754.00
2018-09-06T17:13:32.776Z,96752.00
2018-09-06T17:16:01.988Z,96744.00
2018-09-06T17:18:31.222Z,96744.00
2018-09-06T17:21:00.428Z,96749.00
2018-09-06T17:23:29.802Z,96742.00
2018-09-06T17:25:59.112Z,96744.00
2018-09-06T17:28:28.389Z,96744.00
2018-09-06T17:30:57.577Z,96746.00
2018-09-06T17:33:26.792Z,96748.00
2018-09-06T17:35:56.004Z,96747.00
2018-09-06T17:38:25.243Z,96758.00
2018-09-06T17:40:54.428Z,96748.00
2018-09-06T17:43:23.636Z,96751.00
2018-09-06T17:45:52.971Z,96747.00
2018-09-06T17:48:22.205Z,96753.00
2018-09-06T17:50:51.390Z,96752.00
2018-09-06T17:53:20.624Z,96751.00
2018-09-06T17:55:50.419Z,96760.00
2018-09-06T17:58:19.623Z,96753.00
2018-09-06T18:02:03.667Z,96756.00
2018-09-06T18:04:32.991Z,96769.00
2018-09-06T18:07:02.203Z,96765.00
2018-09-06T18:09:31.516Z,96768.00
2018-09-06T18:12:00.725Z,96773.00
2018-09-06T18:14:29.956Z,96767.00
2018-09-06T18:16:59.183Z,96774.00
2018-09-06T18:19:28.383Z,96777.00
2018-09-06T18:21:57.621Z,96769.00
2018-09-06T18:24:26.875Z,96778.00
2018-09-06T18:26:56.089Z,96781.00
2018-09-06T18:29:25.600Z,96783.00
2018-09-06T18:31:54.857Z,96779.00
2018-09-06T18:34:24.051Z,96771.00
2018-09-06T18:36:53.632Z,96777.00
2018-09-06T18:39:22.841Z,96788.00
2018-09-06T18:41:52.060Z,96791.00
2018-09-06T18:44:21.724Z,96788.00
2018-09-06T18:46:50.936Z,96777.00
2018-09-06T18:49:20.400Z,96780.00
2018-09-06T18:51:49.606Z,96781.00
2018-09-06T18:54:19.282Z,96790.00
2018-09-06T18:56:48.472Z,96790.00
2018-09-06T18:59:17.720Z,96797.00
2018-09-06T19:01:46.936Z,96797.00
2018-09-06T19:04:16.128Z,96806.00
2018-09-06T19:06:45.488Z,96808.00
2018-09-06T19:09:14.767Z,96802.00
2018-09-06T19:11:44.429Z,96793.00
2018-09-06T19:14:13.937Z,96804.00
2018-09-06T19:16:43.609Z,96802.00
2018-09-06T19:19:12.844Z,96802.00
2018-09-06T19:21:42.063Z,96793.00
2018-09-06T19:24:11.293Z,96805.00
2018-09-06T19:26:40.864Z,96804.00
2018-09-06T19:29:10.108Z,96799.00
2018-09-06T19:31:39.324Z,96802.00
2018-09-06T19:34:09.424Z,96803.00
2018-09-06T19:36:38.632Z,96804.00
2018-09-06T19:39:11.266Z,96817.00
2018-09-06T19:41:40.524Z,96798.00
2018-09-06T19:44:10.123Z,96808.00
2018-09-06T19:46:39.318Z,96806.00
2018-09-06T19:49:08.596Z,96801.00
2018-09-06T19:51:37.859Z,96800.00
2018-09-06T19:54:07.323Z,96803.00
2018-09-06T19:56:36.664Z,96801.00
2018-09-06T19:59:05.963Z,96801.00
2018-09-06T20:01:35.306Z,96795.00
2018-09-06T20:04:04.532Z,96809.00
2018-09-06T20:06:33.738Z,96804.00
2018-09-06T20:09:02.958Z,96808.00
2018-09-06T20:11:32.200Z,96804.00
2018-09-06T20:14:01.509Z,96798.00
2018-09-06T20:16:30.760Z,96805.00
2018-09-06T20:18:59.972Z,96804.00
2018-09-06T20:21:29.665Z,96800.00
2018-09-06T20:23:58.909Z,96801.00
2018-09-06T20:26:28.229Z,96803.00
2018-09-06T20:28:57.725Z,96802.00
2018-09-06T20:31:26.945Z,96802.00
2018-09-06T20:33:56.149Z,96800.00
2018-09-06T20:36:25.365Z,96806.00
2018-09-06T20:38:54.549Z,96805.00
2018-09-06T20:41:23.816Z,96800.00
2018-09-06T20:43:53.032Z,96812.00
2018-09-06T20:46:22.253Z,96803.00
2018-09-06T20:48:51.458Z,96803.00
2018-09-06T20:51:20.676Z,96800.00
2018-09-06T20:53:50.312Z,96798.00
2018-09-06T20:56:19.512Z,96806.00
2018-09-06T20:58:49.009Z,96797.00
2018-09-06T21:01:18.228Z,96805.00
2018-09-06T21:03:47.434Z,96808.00
2018-09-06T21:06:16.690Z,96797.00
2018-09-06T21:08:46.516Z,96794.00
2018-09-06T21:11:15.705Z,96799.00
2018-09-06T21:14:02.156Z,96798.00
2018-09-06T21:16:31.418Z,96792.00
2018-09-06T21:19:05.407Z,96797.00
2018-09-06T21:21:34.684Z,96794.00
2018-09-06T21:24:03.884Z,96792.00
2018-09-06T21:26:33.173Z,96794.00
2018-09-06T21:29:03.285Z,96805.00
2018-09-06T21:31:32.513Z,96804.00
2018-09-06T21:34:02.357Z,96803.00
2018-09-06T21:36:31.902Z,96796.00
2018-09-06T21:39:01.108Z,96792.00
2018-09-06T21:41:30.383Z,96782.00
2018-09-06T21:43:59.575Z,96788.00
2018-09-06T21:46:28.778Z,96790.00
2018-09-06T21:48:58.394Z,96788.00
2018-09-06T21:51:27.622Z,96793.00
2018-09-06T21:53:56.809Z,96797.00
2018-09-06T21:56:26.028Z,96801.00
2018-09-06T21:58:55.388Z,96802.00
2018-09-06T22:01:24.928Z,96808.00
2018-09-06T22:03:59.365Z,96803.00
2018-09-06T22:06:28.616Z,96799.00
2018-09-06T22:08:57.821Z,96796.00
2018-09-06T22:11:27.026Z,96803.00
2018-09-06T22:13:56.235Z,96805.00
2018-09-06T22:16:25.476Z,96796.00
2018-09-06T22:18:54.669Z,96791.00
2018-09-06T22:21:23.901Z,96789.00
2018-09-06T22:23:53.422Z,96782.00
2018-09-06T22:26:22.652Z,96777.00
2018-09-06T22:28:51.941Z,96777.00
2018-09-06T22:31:21.192Z,96768.00
2018-09-06T22:33:50.400Z,96766.00
2018-09-06T22:36:19.606Z,96770.00
2018-09-06T22:38:48.824Z,96777.00
2018-09-06T22:41:18.076Z,96762.00
2018-09-06T22:43:50.177Z,96765.00
2018-09-06T22:46:19.457Z,96762.00
2018-09-06T22:48:48.752Z,96764.00
2018-09-06T22:51:17.931Z,96762.00
2018-09-06T22:53:47.104Z,96758.00
2018-09-06T22:56:16.365Z,96758.00
2018-09-06T22:58:45.549Z,96756.00
2018-09-06T23:01:14.760Z,96761.00
2018-09-06T23:03:44.692Z,96762.00
2018-09-06T23:06:13.900Z,96764.00
2018-09-06T23:08:43.131Z,96767.00
2018-09-06T23:11:12.334Z,96767.00
2018-09-06T23:13:41.544Z,96783.00
2018-09-06T23:16:10.792Z,96793.00
2018-09-06T23:18:39.984Z,96801.00
2018-09-06T23:21:09.200Z,96790.00
2018-09-06T23:23:38.403Z,96787.00
2018-09-06T23:26:07.964Z,96783.00
2018-09-06T23:28:37.204Z,96783.00
2018-09-06T23:31:06.436Z,96789.00
2018-09-06T23:33:35.667Z,96790.00
2018-09-06T23:36:04.913Z,96712.00
2018-09-06T23:38:34.110Z,96780.00
2018-09-06T23:41:03.340Z,96787.00
2018-09-06T23:43:32.556Z,96780.00
2018-09-06T23:46:01.748Z,96782.00
2018-09-06T23:48:31.104Z,96783.00
2018-09-06T23:51:00.313Z,96779.00
2018-09-06T23:53:29.603Z,96788.00
2018-09-06T23:55:58.796Z,96795.00
2018-09-06T23:58:27.964Z,96793.00
